Time;durP1;ratioP1;P1;durP2;ratioP2;P2;SDS_P1;SDS_P2;PMS_P1;PMS_P2;Temp;Humidity;BMP_temperature;BMP_pressure;BME280_temperature;BME280_humidity;BME280_pressure;Samples;Min_cycle;Max_cycle;Signal;HPM_P1;HPM_P2
2022/04/10 00:01:56;;;;;;;14.27;3.40;;;;;;;10.78;100.00;61952.81;5091749;28;20260;-71
2022/04/10 00:04:24;;;;;;;12.87;4.00;;;;;;;10.86;100.00;61964.47;5092116;28;20199;-70
2022/04/10 00:06:52;;;;;;;12.70;3.70;;;;;;;10.96;100.00;61977.19;5091809;28;20682;-71
2022/04/10 00:09:19;;;;;;;16.53;7.77;;;;;;;10.87;100.00;61967.53;5095403;28;20199;-71
2022/04/10 00:11:46;;;;;;;11.70;5.87;;;;;;;10.84;100.00;61964.88;5096062;28;20203;-72
2022/04/10 00:14:13;;;;;;;10.63;6.37;;;;;;;10.82;100.00;61962.72;5095899;28;20219;-72
2022/04/10 00:16:40;;;;;;;12.13;4.50;;;;;;;10.89;100.00;61965.13;5096282;28;20191;-71
2022/04/10 00:19:07;;;;;;;8.53;4.83;;;;;;;11.05;100.00;61982.28;5096439;28;20199;-72
2022/04/10 00:21:35;;;;;;;15.07;5.60;;;;;;;11.04;100.00;61985.78;5096008;28;20260;-73
2022/04/10 00:24:02;;;;;;;9.73;3.70;;;;;;;11.09;100.00;61991.13;5096268;28;20276;-71
2022/04/10 00:26:28;;;;;;;6.87;3.60;;;;;;;11.18;100.00;61995.69;5095703;28;20728;-72
2022/04/10 00:28:56;;;;;;;11.07;3.53;;;;;;;11.26;100.00;62003.72;5096225;28;20203;-72
2022/04/10 00:31:23;;;;;;;5.03;2.90;;;;;;;11.28;100.00;62008.41;5095769;28;20278;-72
2022/04/10 00:33:50;;;;;;;8.00;3.30;;;;;;;10.74;100.00;61949.06;5095547;28;20663;-71
2022/04/10 00:36:17;;;;;;;9.00;3.80;;;;;;;11.23;100.00;62000.50;5095775;28;20192;-71
2022/04/10 00:38:45;;;;;;;7.80;3.53;;;;;;;10.94;100.00;61969.94;5095545;28;20199;-71
2022/04/10 00:41:12;;;;;;;6.10;3.30;;;;;;;10.31;100.00;61903.00;5095534;28;20203;-71
2022/04/10 00:43:40;;;;;;;8.97;3.33;;;;;;;11.05;100.00;61979.19;5096205;28;20203;-71
2022/04/10 00:46:06;;;;;;;8.10;3.87;;;;;;;11.03;100.00;61980.13;5095552;28;20196;-71
2022/04/10 00:48:33;;;;;;;8.47;3.30;;;;;;;10.96;100.00;61972.63;5095314;28;20195;-72
2022/04/10 00:53:47;;;;;;;9.73;3.67;;;;;;;11.09;100.00;61986.03;5095831;28;20731;-71
2022/04/10 00:56:14;;;;;;;9.43;4.60;;;;;;;11.08;100.00;61984.97;5095345;28;20278;-71
2022/04/10 00:58:42;;;;;;;8.83;3.73;;;;;;;10.98;100.00;61972.22;5095187;28;20286;-70
2022/04/10 01:01:08;;;;;;;11.50;3.87;;;;;;;10.84;100.00;61964.88;5095507;28;20199;-72
2022/04/10 01:03:35;;;;;;;6.23;3.73;;;;;;;10.75;100.00;61955.22;5095634;28;20196;-72
2022/04/10 01:06:02;;;;;;;13.20;5.30;;;;;;;10.72;100.00;61946.38;5095401;28;20231;-72
2022/04/10 01:08:29;;;;;;;12.63;5.37;;;;;;;10.61;100.00;61939.69;5094773;28;20240;-72
2022/04/10 01:10:58;;;;;;;14.87;5.00;;;;;;;10.62;100.00;61938.75;5095100;28;20195;-71
2022/04/10 01:13:25;;;;;;;15.43;5.20;;;;;;;10.48;100.00;61923.75;5094956;28;20231;-72
2022/04/10 01:15:52;;;;;;;14.00;4.63;;;;;;;10.48;100.00;61920.66;5094914;28;20686;-71
2022/04/10 01:18:20;;;;;;;13.57;5.70;;;;;;;10.73;100.00;61947.97;5095109;28;20658;-72
2022/04/10 01:20:46;;;;;;;10.20;5.13;;;;;;;10.57;100.00;61935.94;5093425;28;20298;-72
2022/04/10 01:23:16;;;;;;;8.67;4.60;;;;;;;10.12;100.00;61882.66;5094511;28;20253;-71
2022/04/10 01:25:44;;;;;;;9.97;4.37;;;;;;;10.24;100.00;61894.97;5094868;28;20200;-71
2022/04/10 01:28:14;;;;;;;8.67;4.17;;;;;;;10.25;100.00;61901.66;5095133;28;20260;-72
2022/04/10 01:30:43;;;;;;;8.90;3.80;;;;;;;10.17;100.00;61893.09;5094812;28;20200;-71
2022/04/10 01:33:09;;;;;;;10.63;4.30;;;;;;;10.15;100.00;61885.84;5094668;28;20235;-71
2022/04/10 01:35:38;;;;;;;21.70;5.10;;;;;;;10.32;100.00;61906.63;5094343;28;20200;-72
2022/04/10 01:38:06;;;;;;;9.50;4.50;;;;;;;10.14;100.00;61884.78;5094576;28;20278;-72
2022/04/10 01:40:34;;;;;;;14.57;4.70;;;;;;;10.12;100.00;61883.19;5094603;28;20625;-71
2022/04/10 01:43:01;;;;;;;9.50;4.23;;;;;;;10.04;100.00;61874.06;5094816;28;20257;-71
2022/04/10 01:45:28;;;;;;;8.30;3.67;;;;;;;10.21;100.00;61892.28;5094437;28;20578;-71
2022/04/10 01:47:54;;;;;;;7.70;4.27;;;;;;;10.11;100.00;61879.03;5093940;28;20196;-72
2022/04/10 01:50:22;;;;;;;12.03;4.53;;;;;;;10.10;100.00;61880.50;5093894;28;20265;-71
2022/04/10 01:52:48;;;;;;;9.30;4.47;;;;;;;10.09;100.00;61879.41;5094633;28;20211;-72
2022/04/10 01:55:15;;;;;;;9.53;4.07;;;;;;;10.09;100.00;61874.31;5094186;28;20634;-71
2022/04/10 01:57:43;;;;;;;11.00;4.17;;;;;;;9.88;100.00;61857.47;5094121;28;20192;-71
2022/04/10 02:00:12;;;;;;;13.20;4.70;;;;;;;9.90;100.00;61861.63;5094060;28;20622;-70
2022/04/10 02:02:38;;;;;;;9.27;4.03;;;;;;;9.75;100.00;61845.56;5092619;28;20203;-71
2022/04/10 02:05:06;;;;;;;11.13;4.37;;;;;;;9.89;100.00;61858.00;5093776;28;20735;-71
2022/04/10 02:07:33;;;;;;;9.93;4.50;;;;;;;9.80;100.00;61850.91;5093789;28;20196;-71
2022/04/10 02:10:00;;;;;;;11.60;4.23;;;;;;;9.89;100.00;61858.00;5093911;28;20776;-71
2022/04/10 02:12:27;;;;;;;7.73;4.13;;;;;;;9.93;100.00;61862.28;5093901;28;20215;-73
2022/04/10 02:14:55;;;;;;;8.60;4.27;;;;;;;9.96;100.00;61868.03;5093586;28;20751;-70
2022/04/10 02:17:22;;;;;;;12.57;4.83;;;;;;;9.08;100.00;61774.94;5094037;28;20437;-72
2022/04/10 02:19:49;;;;;;;7.63;3.90;;;;;;;10.11;100.00;61884.13;5094441;28;20200;-72
2022/04/10 02:22:15;;;;;;;10.90;4.37;;;;;;;9.85;100.00;61856.25;5093560;28;20196;-72
2022/04/10 02:24:42;;;;;;;9.00;4.77;;;;;;;9.38;100.00;61805.97;5093890;28;20642;-70
2022/04/10 02:27:09;;;;;;;8.83;4.07;;;;;;;9.27;100.00;61792.72;5093836;28;20196;-71
2022/04/10 02:29:35;;;;;;;7.67;3.90;;;;;;;9.83;100.00;61852.13;5093212;28;20666;-71
2022/04/10 02:32:08;;;;;;;10.73;4.80;;;;;;;9.99;100.00;61873.78;5093188;28;20192;-73
2022/04/10 02:34:35;;;;;;;7.80;4.20;;;;;;;10.05;100.00;61875.13;5093814;28;20308;-71
2022/04/10 02:37:02;;;;;;;7.40;4.57;;;;;;;9.84;100.00;61855.19;5093509;28;20277;-71
2022/04/10 02:39:28;;;;;;;10.57;4.20;;;;;;;9.84;100.00;61855.72;5093462;28;20200;-72
2022/04/10 02:41:55;;;;;;;14.57;4.90;;;;;;;9.84;100.00;61852.66;5093254;28;20199;-72
2022/04/10 02:44:22;;;;;;;15.50;4.40;;;;;;;10.03;100.00;61873.00;5093940;28;20211;-72
2022/04/10 02:46:49;;;;;;;7.33;4.73;;;;;;;10.21;100.00;61897.38;5093044;28;20229;-72
2022/04/10 02:49:17;;;;;;;6.77;4.07;;;;;;;10.13;100.00;61884.25;5092969;28;20199;-71
2022/04/10 02:51:46;;;;;;;14.10;4.73;;;;;;;10.26;100.00;61897.09;5093256;28;20256;-71
2022/04/10 02:54:12;;;;;;;9.20;5.07;;;;;;;10.32;100.00;61906.06;5092999;28;20230;-72
2022/04/10 02:56:39;;;;;;;15.27;5.13;;;;;;;10.30;100.00;61903.94;5092381;28;20199;-70
2022/04/10 02:59:06;;;;;;;11.90;4.80;;;;;;;10.27;100.00;61896.16;5092959;28;20257;-71
2022/04/10 03:01:33;;;;;;;8.40;4.87;;;;;;;10.16;100.00;61887.47;5092891;28;20204;-71
2022/04/10 03:04:01;;;;;;;14.40;5.00;;;;;;;10.28;100.00;61901.78;5093185;28;20207;-72
2022/04/10 03:06:29;;;;;;;9.87;5.00;;;;;;;10.24;100.00;61897.50;5093022;28;20196;-72
2022/04/10 03:08:56;;;;;;;14.97;4.67;;;;;;;10.20;100.00;61891.22;5092563;28;20727;-71
2022/04/10 03:11:25;;;;;;;12.40;4.60;;;;;;;10.16;100.00;61886.94;5092717;28;20199;-71
2022/04/10 03:13:51;;;;;;;10.93;4.87;;;;;;;9.47;100.00;61815.59;5092236;28;20292;-72
2022/04/10 03:16:19;;;;;;;13.73;5.13;;;;;;;10.28;100.00;61899.25;5092832;28;20195;-72
2022/04/10 03:18:46;;;;;;;10.37;4.50;;;;;;;10.36;100.00;61913.44;5092608;28;20655;-71
2022/04/10 03:21:12;;;;;;;14.73;5.20;;;;;;;10.39;100.00;61913.56;5091483;28;20202;-70
2022/04/10 03:23:41;;;;;;;13.47;5.80;;;;;;;10.50;100.00;61925.91;5092503;28;20199;-72
2022/04/10 03:26:08;;;;;;;11.77;5.60;;;;;;;10.54;100.00;61932.19;5092699;28;20195;-71
2022/04/10 03:28:34;;;;;;;11.80;5.73;;;;;;;10.53;100.00;61926.56;5092906;28;20254;-70
2022/04/10 03:31:02;;;;;;;15.00;6.10;;;;;;;10.57;100.00;61930.84;5092495;28;20196;-71
2022/04/10 03:33:29;;;;;;;15.73;5.80;;;;;;;10.39;100.00;61909.00;5090916;28;20231;-72
2022/04/10 03:35:58;;;;;;;16.23;6.40;;;;;;;10.39;100.00;61911.56;5092256;28;20720;-72
2022/04/10 03:38:25;;;;;;;11.87;5.90;;;;;;;10.57;100.00;61930.84;5092122;28;20199;-71
2022/04/10 03:40:53;;;;;;;12.67;5.70;;;;;;;10.70;100.00;61944.78;5092424;28;20192;-72
2022/04/10 03:43:20;;;;;;;14.70;6.10;;;;;;;10.57;100.00;61930.84;5091609;28;20201;-71
2022/04/10 03:45:47;;;;;;;11.60;5.93;;;;;;;10.51;100.00;61923.88;5092599;28;20263;-71
2022/04/10 03:48:14;;;;;;;11.00;5.10;;;;;;;10.47;100.00;61920.13;5092270;28;20627;-71
2022/04/10 03:50:41;;;;;;;13.73;5.20;;;;;;;10.46;100.00;61916.53;5092237;28;20192;-72
2022/04/10 03:53:07;;;;;;;17.63;5.87;;;;;;;10.56;100.00;61932.31;5091900;28;20245;-71
2022/04/10 03:55:34;;;;;;;11.83;5.37;;;;;;;10.52;100.00;61925.50;5091851;28;20577;-72
2022/04/10 03:58:02;;;;;;;14.47;5.53;;;;;;;10.48;100.00;61920.66;5092060;28;20199;-71
2022/04/10 04:00:29;;;;;;;12.73;5.37;;;;;;;10.44;100.00;61918.94;5091999;28;20245;-71
2022/04/10 04:02:55;;;;;;;10.60;4.73;;;;;;;10.53;100.00;61926.56;5091878;28;20257;-70
2022/04/10 04:05:22;;;;;;;14.40;5.03;;;;;;;10.33;100.00;61905.13;5091898;28;20256;-71
2022/04/10 04:07:49;;;;;;;12.17;5.10;;;;;;;10.28;100.00;61904.88;5091963;28;20204;-72
2022/04/10 04:10:15;;;;;;;11.33;5.00;;;;;;;10.36;100.00;61910.91;5091663;28;20610;-71
2022/04/10 04:12:42;;;;;;;16.60;6.50;;;;;;;10.25;100.00;61896.56;5091942;28;20314;-71
2022/04/10 04:15:12;;;;;;;14.63;5.27;;;;;;;10.13;100.00;61884.25;5091678;28;20223;-72
2022/04/10 04:17:38;;;;;;;9.63;6.13;;;;;;;10.15;100.00;61883.31;5092006;28;20206;-72
2022/04/10 04:20:06;;;;;;;14.60;6.00;;;;;;;10.16;100.00;61890.00;5092634;28;20641;-71
2022/04/10 04:22:35;;;;;;;13.60;7.13;;;;;;;9.81;100.00;61854.53;5091390;28;20598;-73
2022/04/10 04:25:02;;;;;;;13.40;6.87;;;;;;;10.16;100.00;61886.94;5091400;28;20200;-72
2022/04/10 04:27:28;;;;;;;10.20;6.90;;;;;;;10.05;100.00;61875.66;5091418;28;20650;-73
2022/04/10 04:29:59;;;;;;;13.10;7.03;;;;;;;10.02;100.00;61871.94;5091720;28;20196;-73
2022/04/10 04:32:27;;;;;;;13.13;7.70;;;;;;;9.99;100.00;61866.16;5091453;28;20208;-70
2022/04/10 04:34:54;;;;;;;13.30;8.40;;;;;;;9.94;100.00;61865.91;5091345;28;20230;-71
2022/04/10 04:37:20;;;;;;;13.33;9.37;;;;;;;9.87;100.00;61856.41;5092006;28;20192;-72
2022/04/10 04:39:48;;;;;;;18.43;10.00;;;;;;;9.81;100.00;61849.44;5091593;28;20195;-72
2022/04/10 04:42:15;;;;;;;16.83;10.93;;;;;;;9.81;100.00;61849.44;5091918;28;20196;-72
2022/04/10 04:44:43;;;;;;;17.43;11.93;;;;;;;9.69;100.00;61841.69;5091868;28;20211;-73
2022/04/10 04:47:10;;;;;;;17.40;12.50;;;;;;;9.35;100.00;61803.81;5092347;28;20203;-71
2022/04/10 04:49:38;;;;;;;19.57;12.83;;;;;;;9.55;100.00;61824.16;5091392;28;20662;-72
2022/04/10 04:52:05;;;;;;;18.90;12.40;;;;;;;9.46;100.00;61811.97;5091377;28;20494;-71
2022/04/10 04:54:32;;;;;;;18.87;13.40;;;;;;;8.94;100.00;61757.41;5093247;28;21006;-72
2022/04/10 04:56:59;;;;;;;20.70;13.60;;;;;;;9.15;100.00;61777.34;5095319;28;20514;-71
2022/04/10 04:59:26;;;;;;;20.90;12.57;;;;;;;9.02;100.00;61765.44;5095145;28;20441;-71
2022/04/10 05:01:53;;;;;;;21.17;12.50;;;;;;;8.86;100.00;61748.84;5094951;28;20449;-73
2022/04/10 05:04:20;;;;;;;21.00;14.30;;;;;;;8.77;100.00;61741.78;5094971;28;20200;-73
2022/04/10 05:06:48;;;;;;;26.07;16.27;;;;;;;8.66;100.00;61732.56;5094988;28;20963;-73
2022/04/10 05:09:15;;;;;;;20.13;13.70;;;;;;;8.52;100.00;61712.50;5094976;28;20869;-72
2022/04/10 05:11:42;;;;;;;25.27;14.17;;;;;;;8.62;100.00;61723.19;5095103;28;20786;-72
2022/04/10 05:14:09;;;;;;;17.27;11.53;;;;;;;8.64;100.00;61725.34;5094731;28;20511;-72
2022/04/10 05:16:36;;;;;;;23.50;13.77;;;;;;;8.45;100.00;61705.03;5094680;28;20442;-72
2022/04/10 05:19:02;;;;;;;26.47;15.60;;;;;;;8.38;100.00;61697.53;5095148;28;20863;-71
2022/04/10 05:21:29;;;;;;;23.57;14.00;;;;;;;8.28;100.00;61691.94;5094757;28;20442;-72
2022/04/10 05:23:57;;;;;;;24.40;15.00;;;;;;;8.23;100.00;61684.03;5094621;28;20944;-72
2022/04/10 05:26:25;;;;;;;25.77;15.27;;;;;;;8.11;100.00;61671.22;5094642;28;20484;-71
2022/04/10 05:28:51;;;;;;;21.83;14.20;;;;;;;8.19;100.00;61682.28;5094620;28;20960;-72
2022/04/10 05:31:18;;;;;;;22.40;14.60;;;;;;;8.00;100.00;61659.44;5094336;28;20437;-72
2022/04/10 05:33:46;;;;;;;17.60;10.77;;;;;;;7.95;100.00;61651.56;5094446;28;20526;-71
2022/04/10 05:36:13;;;;;;;20.30;12.70;;;;;;;7.88;100.00;61646.63;5093850;28;20558;-70
2022/04/10 05:38:40;;;;;;;20.43;13.90;;;;;;;7.85;100.00;61640.91;5094526;28;20433;-71
2022/04/10 05:41:08;;;;;;;24.30;14.40;;;;;;;7.75;100.00;61627.69;5094307;28;20446;-71
2022/04/10 05:43:35;;;;;;;16.47;10.70;;;;;;;7.66;100.00;61619.13;5094644;28;20566;-71
2022/04/10 05:46:02;;;;;;;22.13;13.00;;;;;;;7.73;100.00;61633.16;5094575;28;20438;-71
2022/04/10 05:48:29;;;;;;;24.90;13.90;;;;;;;7.75;100.00;61630.22;5094294;28;20434;-72
2022/04/10 05:50:56;;;;;;;19.40;12.30;;;;;;;7.74;100.00;61624.06;5094136;28;21001;-73
2022/04/10 05:53:22;;;;;;;24.47;13.97;;;;;;;7.82;100.00;61637.69;5094214;28;20476;-71
2022/04/10 05:55:49;;;;;;;19.80;12.17;;;;;;;7.14;100.00;61563.59;5094021;28;20473;-72
2022/04/10 05:58:17;;;;;;;18.97;11.33;;;;;;;7.74;100.00;61629.13;5094110;28;20437;-72
2022/04/10 06:00:44;;;;;;;20.93;11.77;;;;;;;7.69;100.00;61624.31;5094106;28;20537;-72
2022/04/10 06:03:11;;;;;;;28.37;12.53;;;;;;;7.57;100.00;61614.56;5093607;28;20442;-72
2022/04/10 06:05:37;;;;;;;18.00;9.93;;;;;;;7.59;100.00;61616.72;5092755;28;20446;-72
2022/04/10 06:08:05;;;;;;;23.63;11.50;;;;;;;7.64;100.00;61619.53;5094242;28;20908;-71
2022/04/10 06:10:31;;;;;;;18.83;10.37;;;;;;;7.52;100.00;61606.72;5093455;28;20445;-72
2022/04/10 06:13:07;;;;;;;18.17;10.33;;;;;;;7.57;100.00;61614.56;5093441;28;20466;-72
2022/04/10 06:15:35;;;;;;;16.30;9.53;;;;;;;7.49;100.00;61603.50;5094026;28;20481;-71
2022/04/10 06:18:02;;;;;;;17.17;9.10;;;;;;;7.35;100.00;61588.00;5093546;28;20725;-71
2022/04/10 06:20:28;;;;;;;17.47;10.77;;;;;;;7.46;100.00;61600.31;5093717;28;20506;-73
2022/04/10 06:22:55;;;;;;;18.80;10.77;;;;;;;7.30;100.00;61583.22;5093216;28;21039;-73
2022/04/10 06:25:22;;;;;;;19.20;10.80;;;;;;;7.42;100.00;61600.56;5093244;28;20442;-71
2022/04/10 06:27:49;;;;;;;18.70;11.50;;;;;;;7.52;100.00;61603.63;5093658;28;20510;-73
2022/04/10 06:30:17;;;;;;;17.23;11.17;;;;;;;7.56;100.00;61613.53;5093636;28;20468;-71
2022/04/10 06:32:45;;;;;;;15.87;9.63;;;;;;;7.50;100.00;61601.50;5093219;28;20518;-72
2022/04/10 06:35:12;;;;;;;15.20;9.67;;;;;;;7.56;100.00;61616.06;5093279;28;20891;-72
2022/04/10 06:37:39;;;;;;;17.63;9.33;;;;;;;7.52;100.00;61606.72;5093317;28;20897;-70
2022/04/10 06:40:07;;;;;;;13.50;8.30;;;;;;;7.49;100.00;61602.97;5093248;28;20446;-71
2022/04/10 06:42:34;;;;;;;13.10;8.83;;;;;;;7.39;100.00;61597.88;5093260;28;20437;-73
2022/04/10 06:45:01;;;;;;;11.00;7.80;;;;;;;7.55;100.00;61609.91;5092989;28;20944;-71
2022/04/10 06:47:31;;;;;;;10.40;7.33;;;;;;;7.62;100.00;61617.41;5092594;28;20495;-71
2022/04/10 06:49:59;;;;;;;11.43;7.90;;;;;;;7.52;100.00;61611.78;5093042;28;20481;-72
2022/04/10 06:52:26;;;;;;;9.87;7.03;;;;;;;7.40;100.00;61595.91;5093536;28;20845;-71
2022/04/10 06:54:53;;;;;;;10.07;6.77;;;;;;;7.39;100.00;61597.88;5092977;28;20473;-71
2022/04/10 06:57:21;;;;;;;9.23;6.23;;;;;;;7.14;100.00;61568.13;5092845;28;20499;-72
2022/04/10 06:59:47;;;;;;;9.90;7.07;;;;;;;7.09;100.00;61560.78;5092991;28;20437;-72
2022/04/10 07:02:14;;;;;;;9.73;6.17;;;;;;;7.11;100.00;61562.94;5092735;28;20499;-71
2022/04/10 07:04:42;;;;;;;9.23;6.33;;;;;;;7.12;100.00;61564.00;5092550;28;20434;-71
2022/04/10 07:07:11;;;;;;;8.07;5.70;;;;;;;7.09;100.00;61560.78;5092737;28;20495;-71
2022/04/10 07:09:38;;;;;;;8.97;5.87;;;;;;;7.05;100.00;61556.53;5092480;28;20499;-71
2022/04/10 07:12:05;;;;;;;8.47;5.40;;;;;;;7.07;100.00;61563.72;5092221;28;20553;-72
2022/04/10 07:14:31;;;;;;;7.20;5.03;;;;;;;7.14;100.00;61571.22;5092640;28;20460;-71
2022/04/10 07:16:58;;;;;;;10.13;6.47;;;;;;;7.28;100.00;61581.09;5092400;28;20442;-72
2022/04/10 07:19:25;;;;;;;10.67;6.07;;;;;;;7.35;100.00;61588.56;5092543;28;21114;-73
2022/04/10 07:24:37;;;;;;;9.67;5.93;;;;;;;7.13;100.00;61567.59;5092466;28;20505;-73
2022/04/10 07:27:04;;;;;;;6.90;4.73;;;;;;;7.05;100.00;61554.00;5092484;28;20962;-72
2022/04/10 07:29:31;;;;;;;6.73;4.83;;;;;;;6.90;100.00;61540.53;5090968;28;20472;-73
2022/04/10 07:31:58;;;;;;;7.60;4.57;;;;;;;7.26;100.00;61581.47;5093167;28;20453;-73
2022/04/10 07:34:24;;;;;;;6.60;4.57;;;;;;;7.28;100.00;61581.09;5092479;28;20477;-73
2022/04/10 07:36:51;;;;;;;7.17;5.07;;;;;;;7.41;100.00;61594.97;5092173;28;20489;-74
2022/04/10 07:39:18;;;;;;;5.90;4.70;;;;;;;7.42;100.00;61593.50;5092226;28;20463;-71
2022/04/10 07:41:47;;;;;;;5.47;4.30;;;;;;;7.45;100.00;61603.75;5091702;28;20454;-72
2022/04/10 07:44:14;;;;;;;7.40;4.20;;;;;;;7.52;100.00;61606.72;5091801;28;20438;-72
2022/04/10 07:49:24;;;;;;;8.73;4.23;;;;;;;7.63;100.00;61621.00;5092604;28;20440;-71
2022/04/10 07:51:51;;;;;;;8.23;4.00;;;;;;;7.65;100.00;61620.59;5091915;28;20944;-72
2022/04/10 07:54:18;;;;;;;5.77;4.10;;;;;;;7.71;100.00;61631.53;5092204;28;20456;-72
2022/04/10 07:56:46;;;;;;;7.27;3.60;;;;;;;8.01;100.00;61658.00;5091769;28;20534;-71
2022/04/10 07:59:16;;;;;;;6.37;3.00;;;;;;;7.63;100.00;61618.44;5092227;28;20516;-71
2022/04/10 08:01:42;;;;;;;4.73;3.00;;;;;;;7.90;100.00;61648.75;5092418;28;20494;-72
2022/04/10 08:04:09;;;;;;;5.30;4.00;;;;;;;7.79;100.00;61637.03;5091680;28;20445;-72
2022/04/10 08:06:36;;;;;;;4.03;3.03;;;;;;;7.10;100.00;61561.88;5092253;28;20442;-70
2022/04/10 08:09:03;;;;;;;3.87;2.70;;;;;;;7.81;100.00;61636.63;5092382;28;20510;-73
2022/04/10 08:11:31;;;;;;;2.47;1.67;;;;;;;7.68;100.00;61621.28;5091818;28;20445;-71
2022/04/10 08:13:58;;;;;;;3.07;2.27;;;;;;;7.60;100.00;61620.31;5092030;28;20497;-71
2022/04/10 08:16:26;;;;;;;3.57;2.37;;;;;;;7.77;100.00;61632.34;5090439;28;20484;-72
2022/04/10 08:18:53;;;;;;;3.30;2.50;;;;;;;7.81;100.00;61636.63;5091794;28;20932;-72
2022/04/10 08:21:20;;;;;;;6.63;2.33;;;;;;;7.90;100.00;61646.75;5091968;28;20448;-69
2022/04/10 08:23:47;;;;;;;4.17;2.37;;;;;;;7.92;100.00;61645.81;5091750;28;20442;-71
2022/04/10 08:26:14;;;;;;;4.17;2.17;;;;;;;7.96;100.00;61652.63;5091591;28;20438;-71
2022/04/10 08:28:40;;;;;;;3.60;2.20;;;;;;;7.92;100.00;61648.38;5092711;28;20503;-72
2022/04/10 08:31:08;;;;;;;3.10;1.80;;;;;;;7.76;100.00;61631.28;5095858;28;20439;-72
2022/04/10 08:33:36;;;;;;;1.70;1.60;;;;;;;7.78;100.00;61636.47;5095900;28;20660;-72
2022/04/10 08:36:03;;;;;;;1.73;1.60;;;;;;;7.74;100.00;61634.19;5095643;28;20473;-72
2022/04/10 08:38:30;;;;;;;2.37;1.60;;;;;;;7.49;100.00;61603.50;5095671;28;20471;-71
2022/04/10 08:41:01;;;;;;;12.97;3.10;;;;;;;7.39;100.00;61592.28;5095737;28;20499;-71
2022/04/10 08:43:29;;;;;;;7.13;3.80;;;;;;;7.10;100.00;61561.88;5095280;28;21059;-71
2022/04/10 08:45:59;;;;;;;2.37;2.10;;;;;;;6.89;100.00;61539.44;5095429;28;20445;-71
2022/04/10 08:48:27;;;;;;;1.10;1.00;;;;;;;6.82;100.00;61534.50;5095788;28;20495;-71
2022/04/10 08:50:59;;;;;;;3.03;1.30;;;;;;;6.80;100.00;61532.38;5095339;28;20532;-72
2022/04/10 08:53:26;;;;;;;2.33;1.33;;;;;;;6.68;100.00;61519.56;5095339;28;20959;-73
2022/04/10 08:55:54;;;;;;;2.70;2.00;;;;;;;6.52;100.00;61502.50;5094017;28;20856;-71
2022/04/10 08:58:22;;;;;;;1.90;1.40;;;;;;;6.54;100.00;61502.09;5095153;28;20442;-73
2022/04/10 09:00:48;;;;;;;2.10;1.80;;;;;;;6.21;100.00;61469.97;5095205;28;20928;-72
2022/04/10 09:03:18;;;;;;;4.70;1.90;;;;;;;6.02;100.00;61446.66;5095345;28;20502;-71
2022/04/10 09:06:03;;;;;;;2.93;0.97;;;;;;;6.04;100.00;61451.31;5094796;28;20434;-72
2022/04/10 09:08:30;;;;;;;1.20;1.10;;;;;;;5.76;100.00;61419.97;5095414;28;20506;-71
2022/04/10 09:10:59;;;;;;;2.23;1.40;;;;;;;5.13;100.00;61357.88;5094981;28;20496;-72
2022/04/10 09:13:29;;;;;;;1.27;1.17;;;;;;;5.63;100.00;61406.13;5094607;28;20476;-71
2022/04/10 09:16:08;;;;;;;2.27;1.50;;;;;;;5.53;100.00;61395.47;5094875;28;20982;-71
2022/04/10 09:18:50;;;;;;;1.10;1.03;;;;;;;5.09;100.00;61346.06;5093603;28;20453;-72
2022/04/10 09:21:20;;;;;;;1.93;1.07;;;;;;;5.28;100.00;61368.28;5094689;28;20445;-71
2022/04/10 09:23:55;;;;;;;2.47;1.20;;;;;;;5.30;100.00;61370.94;5094684;28;20434;-71
2022/04/10 09:26:23;;;;;;;1.77;1.37;;;;;;;5.16;100.00;61358.53;5093901;28;20502;-71
2022/04/10 09:28:51;;;;;;;0.90;0.90;;;;;;;4.50;100.00;61285.72;5094179;28;20445;-71
2022/04/10 09:31:30;;;;;;;1.23;1.13;;;;;;;5.14;100.00;61356.94;5094965;28;20483;-72
2022/04/10 09:34:01;;;;;;;1.63;1.47;;;;;;;5.08;100.00;61348.03;5094751;28;20863;-72
2022/04/10 09:36:47;;;;;;;1.17;1.00;;;;;;;4.90;100.00;61328.31;5094068;28;20469;-70
2022/04/10 09:39:15;;;;;;;1.13;1.03;;;;;;;4.82;100.00;61319.81;5094087;28;20507;-72
2022/04/10 09:41:43;;;;;;;1.47;1.27;;;;;;;4.90;100.00;61328.31;5092911;28;20449;-71
2022/04/10 09:44:20;;;;;;;2.07;1.17;;;;;;;4.82;100.00;61319.81;5094278;28;20506;-71
2022/04/10 09:46:58;;;;;;;2.13;1.67;;;;;;;4.89;100.00;61332.31;5094298;28;20441;-71
2022/04/10 09:49:31;;;;;;;1.90;1.43;;;;;;;4.86;100.00;61326.59;5095107;28;20513;-71
2022/04/10 09:52:04;;;;;;;2.33;1.43;;;;;;;4.78;100.00;61315.53;5094366;28;20448;-72
2022/04/10 09:54:40;;;;;;;2.43;1.43;;;;;;;4.80;100.00;61318.22;5094536;28;20475;-72
2022/04/10 09:57:10;;;;;;;1.57;1.33;;;;;;;3.91;100.00;61223.47;5094021;28;20991;-70
2022/04/10 09:59:40;;;;;;;0.97;0.87;;;;;;;4.61;100.00;61297.47;5093839;28;20941;-72
2022/04/10 10:02:09;;;;;;;4.00;1.20;;;;;;;4.55;100.00;61291.06;5094804;28;20480;-71
2022/04/10 10:04:37;;;;;;;1.70;1.20;;;;;;;4.54;100.00;61290.53;5093973;28;20787;-72
2022/04/10 10:07:08;;;;;;;3.07;1.40;;;;;;;4.60;100.00;61298.91;5093741;28;20518;-72
2022/04/10 10:09:38;;;;;;;1.63;1.40;;;;;;;4.54;100.00;61295.03;5093800;28;20991;-71
2022/04/10 10:12:06;;;;;;;1.37;1.27;;;;;;;4.47;100.00;61282.56;5093318;28;20445;-72
2022/04/10 10:14:34;;;;;;;3.23;1.37;;;;;;;4.52;100.00;61287.88;5094323;28;20441;-71
2022/04/10 10:17:03;;;;;;;1.23;1.13;;;;;;;4.51;100.00;61284.28;5094598;28;20538;-73
2022/04/10 10:19:34;;;;;;;0.70;0.63;;;;;;;4.35;100.00;61270.28;5094630;28;20438;-72
2022/04/10 10:22:01;;;;;;;4.00;1.10;;;;;;;4.34;100.00;61271.22;5093547;28;20444;-73
2022/04/10 10:24:34;;;;;;;1.27;0.70;;;;;;;4.24;100.00;61258.59;5093269;28;20438;-72
2022/04/10 10:27:18;;;;;;;1.43;0.90;;;;;;;4.42;100.00;61277.22;5093939;28;20442;-73
2022/04/10 10:30:08;;;;;;;1.10;1.00;;;;;;;4.26;100.00;61265.75;5093618;28;20487;-71
2022/04/10 10:32:43;;;;;;;2.13;1.53;;;;;;;4.41;100.00;61276.16;5093173;28;20514;-72
2022/04/10 10:35:15;;;;;;;2.80;1.30;;;;;;;4.47;100.00;61285.06;5094255;28;20449;-74
2022/04/10 10:37:52;;;;;;;1.20;1.00;;;;;;;4.47;100.00;61287.59;5092098;28;20481;-72
2022/04/10 10:40:22;;;;;;;0.80;0.80;;;;;;;4.48;100.00;61278.56;5093155;28;20528;-73
2022/04/10 10:42:52;;;;;;;1.30;1.20;;;;;;;4.44;100.00;61279.34;5093075;28;20943;-72
2022/04/10 10:45:40;;;;;;;1.63;1.20;;;;;;;3.68;100.00;61199.56;5093021;28;20965;-73
2022/04/10 10:48:38;;;;;;;1.57;1.10;;;;;;;4.39;100.00;61271.50;5093604;28;20434;-71
2022/04/10 10:51:42;;;;;;;1.50;1.40;;;;;;;4.50;100.00;61283.22;5092913;28;20440;-72
2022/04/10 10:54:11;;;;;;;1.10;1.00;;;;;;;4.45;100.00;61282.94;5092977;28;20455;-71
2022/04/10 10:56:41;;;;;;;4.33;1.70;;;;;;;4.58;100.00;61294.25;5093426;28;20530;-72
2022/04/10 10:59:26;;;;;;;1.97;1.50;;;;;;;4.72;100.00;61314.19;5093219;28;20430;-71
2022/04/10 11:01:55;;;;;;;2.30;1.77;;;;;;;4.88;100.00;61328.72;5092915;28;20433;-72
2022/04/10 11:04:25;;;;;;;2.57;1.90;;;;;;;4.62;100.00;61299.03;5092740;28;20434;-72
2022/04/10 11:06:52;;;;;;;2.03;1.30;;;;;;;4.79;100.00;61319.66;5092553;28;20495;-70
2022/04/10 11:09:23;;;;;;;2.23;1.40;;;;;;;4.47;100.00;61283.06;5092727;28;20438;-72
2022/04/10 11:11:52;;;;;;;4.23;1.63;;;;;;;4.58;100.00;61299.28;5092611;28;20491;-73
2022/04/10 11:14:34;;;;;;;3.83;1.73;;;;;;;4.72;100.00;61309.69;5092675;28;20536;-72
2022/04/10 11:17:16;;;;;;;2.03;1.60;;;;;;;4.92;100.00;61330.47;5092004;28;20864;-71
2022/04/10 11:19:45;;;;;;;2.17;1.70;;;;;;;5.00;100.00;61338.97;5092446;28;20441;-72
2022/04/10 11:22:32;;;;;;;2.93;1.80;;;;;;;5.03;100.00;61342.69;5092432;28;20818;-73
2022/04/10 11:25:00;;;;;;;3.07;1.50;;;;;;;4.99;100.00;61337.91;5092520;28;21009;-73
2022/04/10 11:27:45;;;;;;;1.50;1.30;;;;;;;4.72;100.00;61312.22;5092208;28;20465;-71
2022/04/10 11:30:14;;;;;;;1.60;1.40;;;;;;;3.96;100.00;61231.84;5091382;28;20485;-71
2022/04/10 11:32:43;;;;;;;1.20;1.10;;;;;;;4.58;100.00;61294.25;5092173;28;20445;-72
2022/04/10 11:35:20;;;;;;;2.63;1.60;;;;;;;4.68;100.00;61304.91;5092408;28;20863;-72
2022/04/10 11:37:49;;;;;;;2.53;1.70;;;;;;;4.44;100.00;61284.94;5092120;28;20542;-71
2022/04/10 11:40:20;;;;;;;2.47;1.90;;;;;;;4.39;100.00;61277.06;5092503;28;20449;-71
2022/04/10 11:42:48;;;;;;;2.70;2.37;;;;;;;4.42;100.00;61275.22;5092501;28;20438;-72